Stations météo

réclame
Mon MeteoGroup
Lons-Le-Saunier, France (7390): Température de l'air & dewpoint: 15.02.2019 03:00:00 - 21.02.2019 03:00:00 (CET)Lons-Le-Saunier, France (7390): Vitesse du vent & gusts: 15.02.2019 03:00:00 - 21.02.2019 03:00:00 (CET)Lons-Le-Saunier, France (7390): Direction du vent: 15.02.2019 03:00:00 - 21.02.2019 03:00:00 (CET)Lons-Le-Saunier, France (7390): Quantités de précipitations: 15.02.2019 03:00:00 - 21.02.2019 03:00:00 (CET)
Date & Time tt [°C] td [°C] ff [km/h] ff [knt] fx [km/h] fx [knt] dd rr [mm]
21.02.2019 03:00:00 5,3 1,9 11 6 18 10 SE 0,0
21.02.2019 02:00:00 5,4 2,2 13 7 18 10 SE 0,0
21.02.2019 01:00:00 6,9 2,6 9 5 22 12 ESE -
21.02.2019 00:00:00 7,6 3,1 13 7 18 10 ESE 0,0
20.02.2019 23:00:00 7,6 3,1 13 7 15 8 ESE 0,0
20.02.2019 22:00:00 - - - - - - - -
20.02.2019 21:00:00 8,2 3,6 9 5 11 6 ESE 0,0
20.02.2019 20:00:00 9,4 4,0 5 3 9 5 ESE 0,0
20.02.2019 19:00:00 9,9 4,1 5 3 8 4 NE -
20.02.2019 18:00:00 12,4 3,6 4 2 8 4 NNW 0,0
20.02.2019 17:00:00 13,2 5,1 8 4 13 7 NNW 0,0
20.02.2019 16:00:00 13,8 4,6 5 3 13 7 NNE 0,0
20.02.2019 15:00:00 14,6 4,3 4 2 15 8 WSW 0,0
20.02.2019 14:00:00 13,8 4,9 4 2 11 6 W 0,0
20.02.2019 13:00:00 11,9 4,8 4 2 13 7 W -
20.02.2019 12:00:00 10,2 4,1 8 4 13 7 WSW 0,0
20.02.2019 11:00:00 8,9 4,5 5 3 13 7 WSW 0,0
20.02.2019 10:00:00 7,9 3,5 5 3 13 7 SE 0,0
20.02.2019 09:00:00 5,2 2,4 11 6 18 10 ESE 0,0
20.02.2019 08:00:00 3,4 1,4 9 5 15 8 ESE 0,0
20.02.2019 07:00:00 3,4 1,4 11 6 15 8 ESE -
20.02.2019 06:00:00 3,6 2,0 9 5 15 8 SE 0,0
20.02.2019 05:00:00 3,8 2,0 11 6 15 8 SE 0,0
20.02.2019 04:00:00 4,4 2,6 11 6 21 11 ESE 0,0
20.02.2019 03:00:00 4,8 3,0 13 7 18 10 SE 0,0
20.02.2019 02:00:00 5,1 3,1 11 6 18 10 ESE 0,0
20.02.2019 01:00:00 5,4 3,4 11 6 16 9 SE -
20.02.2019 00:00:00 5,6 3,4 8 4 13 7 E 0,0
19.02.2019 23:00:00 6,9 4,0 9 5 15 8 ESE 0,0
19.02.2019 22:00:00 7,1 4,2 11 6 15 8 ESE 0,0
19.02.2019 21:00:00 7,4 4,4 9 5 13 7 ESE 0,0
19.02.2019 20:00:00 8,5 4,7 8 4 11 6 ESE 0,0
19.02.2019 19:00:00 9,6 4,8 5 3 8 4 N -
19.02.2019 18:00:00 10,7 4,8 8 4 16 9 NW 0,0
19.02.2019 17:00:00 12,1 5,5 9 5 16 9 NW 0,0
19.02.2019 16:00:00 13,6 5,5 8 4 16 9 W 0,0
19.02.2019 15:00:00 13,2 5,4 11 6 18 10 WNW 0,0
19.02.2019 14:00:00 13,1 5,3 9 5 16 9 SW 0,0
19.02.2019 13:00:00 11,9 5,3 11 6 21 11 SW -
19.02.2019 12:00:00 10,9 4,8 11 6 21 11 WSW 0,0
19.02.2019 11:00:00 9,5 4,3 9 5 16 9 SW 0,0
19.02.2019 10:00:00 7,8 3,5 9 5 15 8 SW 0,0
19.02.2019 09:00:00 5,4 2,9 9 5 13 7 S 0,0
19.02.2019 08:00:00 5,6 2,2 5 3 8 4 WSW 0,0
19.02.2019 07:00:00 6,2 2,1 4 2 8 4 SSW -
19.02.2019 06:00:00 6,1 2,2 5 3 13 7 SE 0,0
19.02.2019 05:00:00 6,2 2,5 8 4 15 8 SSW 0,0
19.02.2019 04:00:00 7,4 1,9 11 6 18 10 S 0,0
19.02.2019 03:00:00 7,8 1,8 11 6 24 13 S 0,0
19.02.2019 02:00:00 8,3 2,1 15 8 28 15 S 0,0
19.02.2019 01:00:00 8,6 1,9 15 8 28 15 S -
19.02.2019 00:00:00 8,8 2,1 15 8 29 16 S 0,0
18.02.2019 23:00:00 8,9 2,7 15 8 34 18 S 0,0
18.02.2019 22:00:00 8,9 2,5 16 9 35 19 S 0,0
18.02.2019 21:00:00 8,9 2,0 13 7 35 19 S 0,0
18.02.2019 20:00:00 10,0 2,1 22 12 37 20 SE 0,0
18.02.2019 19:00:00 10,8 1,9 21 11 35 19 S -
18.02.2019 18:00:00 11,7 1,6 18 10 39 21 S 0,0
18.02.2019 17:00:00 13,4 1,7 22 12 41 22 S 0,0
18.02.2019 16:00:00 14,0 1,6 26 14 48 26 SSW 0,0
18.02.2019 15:00:00 14,0 1,9 22 12 44 24 SSW 0,0
18.02.2019 14:00:00 13,6 2,5 26 14 44 24 SSW 0,0
18.02.2019 13:00:00 12,9 2,7 24 13 42 23 SW -
18.02.2019 12:00:00 12,5 0,9 24 13 42 23 S 0,0
18.02.2019 11:00:00 10,9 1,7 24 13 48 26 S 0,0
18.02.2019 10:00:00 9,4 3,8 15 8 31 17 SSE 0,0
18.02.2019 09:00:00 6,5 3,8 9 5 15 8 ESE 0,0
18.02.2019 08:00:00 4,2 2,4 8 4 15 8 NE 0,0
18.02.2019 07:00:00 4,9 2,8 9 5 15 8 ESE -
18.02.2019 06:00:00 6,1 3,4 5 3 16 9 SE 0,0
18.02.2019 05:00:00 6,7 3,8 5 3 21 11 SSE 0,0
18.02.2019 04:00:00 7,3 4,1 5 3 21 11 SE 0,0
18.02.2019 03:00:00 8,3 3,7 11 6 28 15 S 0,0
18.02.2019 02:00:00 9,6 2,4 9 5 41 22 SSW 0,0
18.02.2019 01:00:00 10,3 2,6 24 13 41 22 S -
18.02.2019 00:00:00 10,9 1,1 18 10 42 23 S 0,0
17.02.2019 23:00:00 11,2 0,3 15 8 35 19 S 0,0
17.02.2019 22:00:00 11,6 -0,3 16 9 28 15 S 0,0
17.02.2019 21:00:00 12,2 -0,4 18 10 35 19 S 0,0
17.02.2019 20:00:00 12,4 -0,5 16 9 31 17 SSE 0,0
17.02.2019 19:00:00 13,2 -0,8 13 7 34 18 SSW -
17.02.2019 18:00:00 13,9 -0,2 16 9 31 17 SSW 0,0
17.02.2019 17:00:00 16,3 1,6 15 8 29 16 SW 0,0
17.02.2019 16:00:00 17,4 1,4 18 10 35 19 SW 0,0
17.02.2019 15:00:00 17,1 0,7 24 13 35 19 SW 0,0
17.02.2019 14:00:00 16,9 -0,4 22 12 41 22 SW 0,0
17.02.2019 13:00:00 17,0 -2,7 29 16 48 26 SSW -
17.02.2019 12:00:00 16,3 -2,3 29 16 54 29 S 0,0
17.02.2019 11:00:00 15,3 -1,3 24 13 41 22 SSW 0,0
17.02.2019 10:00:00 13,3 -0,4 15 8 24 13 SSW 0,0
17.02.2019 09:00:00 12,1 -1,8 11 6 26 14 S 0,0
17.02.2019 08:00:00 10,7 -2,4 16 9 34 18 SSW 0,0
17.02.2019 07:00:00 10,2 -2,5 15 8 29 16 S -
17.02.2019 06:00:00 10,6 -1,5 15 8 31 17 S 0,0
17.02.2019 05:00:00 10,3 -1,4 13 7 24 13 S 0,0
17.02.2019 04:00:00 9,7 -1,7 13 7 22 12 S 0,0
17.02.2019 03:00:00 10,2 -2,8 9 5 13 7 S 0,0
17.02.2019 02:00:00 11,0 -3,2 8 4 18 10 SE 0,0
17.02.2019 01:00:00 10,8 -3,3 9 5 16 9 SSE -
17.02.2019 00:00:00 10,6 -3,5 9 5 21 11 SE 0,0
16.02.2019 23:00:00 9,6 -2,1 13 7 21 11 SE 0,0
16.02.2019 22:00:00 9,7 -1,1 9 5 15 8 SE 0,0
16.02.2019 21:00:00 9,3 -0,1 11 6 15 8 ESE 0,0
16.02.2019 20:00:00 10,8 0,8 8 4 9 5 ESE 0,0
16.02.2019 19:00:00 13,1 0,1 4 2 13 7 E -
16.02.2019 18:00:00 15,1 0,1 9 5 18 10 SW 0,0
16.02.2019 17:00:00 17,8 0,9 8 4 24 13 SW 0,0
16.02.2019 16:00:00 18,3 1,3 15 8 24 13 WSW 0,0
16.02.2019 15:00:00 18,6 3,2 11 6 24 13 SSW 0,0
16.02.2019 14:00:00 16,5 3,9 9 5 16 9 SW 0,0
16.02.2019 13:00:00 14,1 3,2 11 6 18 10 WSW -
16.02.2019 12:00:00 13,1 2,3 8 4 11 6 NW 0,0
16.02.2019 11:00:00 11,9 1,2 4 2 9 5 SSW 0,0
16.02.2019 10:00:00 8,9 1,1 4 2 15 8 E 0,0
16.02.2019 09:00:00 5,3 -1,4 11 6 15 8 ESE 0,0
16.02.2019 08:00:00 4,2 -2,7 8 4 15 8 ESE 0,0
16.02.2019 07:00:00 4,7 -2,4 9 5 18 10 ESE -
16.02.2019 06:00:00 4,8 -2,1 11 6 18 10 ESE 0,0
16.02.2019 05:00:00 5,0 -1,7 13 7 18 10 ESE 0,0
16.02.2019 04:00:00 5,7 -1,2 13 7 22 12 ESE 0,0
16.02.2019 03:00:00 6,1 -0,9 13 7 18 10 ESE 0,0
16.02.2019 02:00:00 6,5 -0,7 11 6 16 9 SE 0,0
16.02.2019 01:00:00 7,1 -0,1 11 6 15 8 ESE -
16.02.2019 00:00:00 8,0 0,2 11 6 22 12 ESE 0,0
15.02.2019 23:00:00 8,5 0,9 15 8 22 12 ESE 0,0
15.02.2019 22:00:00 6,9 2,8 11 6 16 9 ESE 0,0
15.02.2019 21:00:00 7,2 3,2 9 5 13 7 ESE 0,0
15.02.2019 20:00:00 8,6 3,6 5 3 8 4 SE 0,0
15.02.2019 19:00:00 11,0 4,0 0 0 5 3 N -
15.02.2019 18:00:00 13,0 2,8 4 2 8 4 NNW 0,0
15.02.2019 17:00:00 14,4 4,4 4 2 8 4 NNW 0,0
15.02.2019 16:00:00 16,0 3,7 0 0 8 4 N 0,0
15.02.2019 15:00:00 14,7 4,1 4 2 9 5 NW 0,0
15.02.2019 14:00:00 13,3 2,2 2 1 13 7 WNW 0,0
15.02.2019 13:00:00 11,8 2,0 5 3 11 6 NW -
15.02.2019 12:00:00 10,8 0,8 4 2 9 5 NW 0,0
15.02.2019 11:00:00 10,8 -0,4 0 0 11 6 N 0,0
15.02.2019 10:00:00 7,4 -1,1 9 5 16 9 SE 0,0
15.02.2019 09:00:00 4,6 -2,5 11 6 18 10 SE 0,0
15.02.2019 08:00:00 2,7 -3,4 11 6 24 13 ESE 0,0
15.02.2019 07:00:00 3,1 -3,3 13 7 18 10 ESE -
15.02.2019 06:00:00 3,4 -3,2 13 7 22 12 ESE 0,0
15.02.2019 05:00:00 3,8 -2,8 13 7 18 10 ESE 0,0
15.02.2019 04:00:00 4,2 -2,0 13 7 21 11 ESE 0,0
15.02.2019 03:00:00 3,6 -0,8 11 6 16 9 SE 0,0

tt = Température de l'air
td = dewpoint
ff = Vitesse du vent
fx = gusts
dd = Direction du vent
rr = Quantités de précipitations

stations d'obs. à proximité